Time;durP1;ratioP1;P1;durP2;ratioP2;P2;SDS_P1;SDS_P2;PMS_P1;PMS_P2;Temp;Humidity;BMP_temperature;BMP_pressure;BME280_temperature;BME280_humidity;BME280_pressure;Samples;Min_cycle;Max_cycle;Signal;HPM_P1;HPM_P2
2023/04/26 00:08:47;;;;;;;0.47;0.10;;;3.30;99.90;;;;;;25966412;22;20085;-60
2023/04/26 00:18:48;;;;;;;3.15;0.20;;;3.40;99.90;;;;;;25967835;22;20449;-60
2023/04/26 00:28:50;;;;;;;0.25;0.03;;;3.30;99.90;;;;;;25967372;22;20016;-61
2023/04/26 00:38:52;;;;;;;0.35;0.13;;;3.10;99.90;;;;;;25965549;22;20066;-60
2023/04/26 00:48:55;;;;;;;0.20;0.00;;;2.90;99.90;;;;;;25966780;22;20015;-59
2023/04/26 00:58:56;;;;;;;0.10;0.00;;;2.90;99.90;;;;;;25968041;22;20003;-59
2023/04/26 01:09:07;;;;;;;0.10;0.00;;;3.00;99.90;;;;;;25966084;22;20007;-59
2023/04/26 01:19:11;;;;;;;0.45;0.08;;;2.80;99.90;;;;;;26006857;22;20003;-59
2023/04/26 01:29:14;;;;;;;0.20;0.00;;;3.10;99.90;;;;;;25965132;22;20011;-59
2023/04/26 01:39:16;;;;;;;0.00;0.00;;;3.20;99.90;;;;;;25963855;22;20011;-59
2023/04/26 01:49:18;;;;;;;1.02;0.10;;;3.20;99.90;;;;;;25965387;22;20034;-60
2023/04/26 01:59:19;;;;;;;0.10;0.00;;;3.30;99.90;;;;;;25964705;22;20004;-59
2023/04/26 02:09:21;;;;;;;0.47;0.00;;;3.60;99.90;;;;;;25964874;22;20000;-60
2023/04/26 02:19:22;;;;;;;0.00;0.00;;;3.10;99.90;;;;;;25967956;22;20316;-59
2023/04/26 02:29:24;;;;;;;1.90;0.10;;;3.20;99.90;;;;;;25970585;22;20339;-48
2023/04/26 02:39:25;;;;;;;0.10;0.00;;;3.50;99.90;;;;;;25970378;22;20061;-59
2023/04/26 02:49:28;;;;;;;0.55;0.05;;;3.30;99.90;;;;;;25971368;22;20037;-52
2023/04/26 02:59:29;;;;;;;1.30;0.00;;;3.30;99.90;;;;;;25969908;22;20007;-59
2023/04/26 03:09:33;;;;;;;0.20;0.10;;;3.60;99.90;;;;;;25971214;22;20080;-59
2023/04/26 03:19:35;;;;;;;0.85;0.08;;;3.10;99.90;;;;;;25968979;22;20003;-59
2023/04/26 03:29:38;;;;;;;0.47;0.10;;;3.30;99.90;;;;;;25967683;22;20012;-59
2023/04/26 03:39:41;;;;;;;0.20;0.08;;;2.80;99.90;;;;;;25968026;22;20007;-59
2023/04/26 03:49:44;;;;;;;0.00;0.00;;;2.70;99.90;;;;;;25969203;22;20323;-59
2023/04/26 03:59:45;;;;;;;0.00;0.00;;;2.60;99.90;;;;;;25968990;22;20316;-59
2023/04/26 04:09:47;;;;;;;0.35;0.10;;;2.40;99.90;;;;;;25968165;22;20008;-59
2023/04/26 04:19:49;;;;;;;0.43;0.00;;;1.90;99.90;;;;;;25966571;22;20088;-59
2023/04/26 04:29:52;;;;;;;0.85;0.10;;;1.60;99.90;;;;;;25967382;22;20016;-59
2023/04/26 04:39:55;;;;;;;0.00;0.00;;;1.70;99.90;;;;;;25967083;22;20073;-59
2023/04/26 04:49:57;;;;;;;0.00;0.00;;;1.40;99.90;;;;;;25966994;22;20003;-59
2023/04/26 05:00:07;;;;;;;0.10;0.03;;;1.30;99.90;;;;;;25964874;22;20381;-59
2023/04/26 05:10:10;;;;;;;0.20;0.00;;;1.20;99.90;;;;;;26007122;22;20030;-60
2023/04/26 05:20:13;;;;;;;0.63;0.13;;;1.40;99.90;;;;;;25965589;22;20006;-60
2023/04/26 05:30:15;;;;;;;0.08;0.00;;;1.60;99.90;;;;;;25965136;22;20015;-59
2023/04/26 05:40:24;;;;;;;0.25;0.10;;;1.70;99.90;;;;;;26006155;22;20007;-59
2023/04/26 05:50:25;;;;;;;0.30;0.10;;;1.80;99.90;;;;;;25963827;22;20384;-59
2023/04/26 06:00:28;;;;;;;0.47;0.10;;;2.10;99.90;;;;;;25973110;22;20512;-59
2023/04/26 06:10:30;;;;;;;0.30;0.10;;;2.40;99.90;;;;;;25970582;22;20004;-59
2023/04/26 06:20:32;;;;;;;0.28;0.00;;;2.50;99.90;;;;;;25971321;22;20379;-50
2023/04/26 06:30:34;;;;;;;0.47;0.00;;;2.80;99.90;;;;;;25970546;22;20016;-62
2023/04/26 06:40:38;;;;;;;0.10;0.00;;;5.60;99.90;;;;;;25969636;22;20078;-64
2023/04/26 06:50:40;;;;;;;0.10;0.00;;;8.60;99.90;;;;;;25971866;22;20300;-65
2023/04/26 07:00:41;;;;;;;0.10;0.10;;;10.20;98.20;;;;;;25971324;22;20000;-66
2023/04/26 07:10:43;;;;;;;0.38;0.10;;;11.40;96.50;;;;;;25970407;22;20004;-66
2023/04/26 07:20:45;;;;;;;0.98;0.10;;;12.30;94.10;;;;;;25970651;22;20004;-64
2023/04/26 07:30:46;;;;;;;1.77;0.10;;;12.80;91.50;;;;;;25969299;22;20012;-64
2023/04/26 07:40:49;;;;;;;0.50;0.10;;;13.30;90.20;;;;;;25968744;22;20015;-63
2023/04/26 07:50:51;;;;;;;0.10;0.10;;;13.60;88.30;;;;;;25969184;22;20004;-64
2023/04/26 08:00:53;;;;;;;1.55;0.17;;;13.50;88.20;;;;;;25968681;22;20300;-64
2023/04/26 08:10:55;;;;;;;0.43;0.05;;;13.80;92.90;;;;;;25966650;22;20062;-63
2023/04/26 08:20:57;;;;;;;0.10;0.10;;;14.20;90.60;;;;;;25968049;22;20008;-63
2023/04/26 08:30:59;;;;;;;0.25;0.10;;;14.70;90.50;;;;;;25966813;22;20008;-52
2023/04/26 08:41:03;;;;;;;1.23;0.03;;;14.60;90.40;;;;;;25967213;22;20331;-63
2023/04/26 08:51:10;;;;;;;0.20;0.10;;;14.60;90.60;;;;;;25966707;22;20081;-53
2023/04/26 09:01:14;;;;;;;0.75;0.10;;;14.90;90.40;;;;;;26007699;22;20003;-63
2023/04/26 09:11:15;;;;;;;0.90;0.10;;;14.80;90.80;;;;;;25966083;22;20004;-48
2023/04/26 09:21:18;;;;;;;0.68;0.13;;;14.30;89.90;;;;;;25965680;22;20011;-51
2023/04/26 09:31:37;;;;;;;0.10;0.10;;;14.90;90.80;;;;;;25965994;22;20065;-52
2023/04/26 09:41:44;;;;;;;0.70;0.20;;;14.80;91.00;;;;;;26006160;22;20023;-63
2023/04/26 09:51:59;;;;;;;0.30;0.20;;;15.20;92.40;;;;;;26007864;22;20030;-63
2023/04/26 10:02:02;;;;;;;1.00;0.30;;;15.90;89.10;;;;;;26006316;22;20004;-64
2023/04/26 10:12:04;;;;;;;0.57;0.25;;;15.40;92.40;;;;;;25964402;22;20007;-50
2023/04/26 10:22:34;;;;;;;1.65;0.20;;;16.20;88.50;;;;;;25964812;22;20030;-63
2023/04/26 10:32:57;;;;;;;1.38;0.40;;;16.10;88.00;;;;;;25962029;22;20015;-63
2023/04/26 10:43:12;;;;;;;1.65;0.20;;;15.00;92.20;;;;;;25952169;22;20003;-54
2023/04/26 10:53:14;;;;;;;0.90;0.20;;;14.50;90.80;;;;;;25969906;22;20004;-55
2023/04/26 11:03:16;;;;;;;2.60;0.63;;;14.90;91.40;;;;;;25971234;22;20000;-53
2023/04/26 11:13:19;;;;;;;2.13;0.70;;;14.50;91.00;;;;;;25970886;22;20535;-53
2023/04/26 11:23:22;;;;;;;0.90;0.70;;;13.70;94.00;;;;;;25969076;22;20073;-60
2023/04/26 11:33:24;;;;;;;1.90;1.23;;;13.70;92.10;;;;;;25942461;22;20016;-52
2023/04/26 11:43:44;;;;;;;2.53;1.52;;;13.70;95.50;;;;;;25969678;22;20008;-52
2023/04/26 11:53:46;;;;;;;1.77;1.40;;;13.60;94.50;;;;;;25941888;22;20012;-62
2023/04/26 12:03:53;;;;;;;2.22;1.70;;;13.70;94.40;;;;;;25967901;22;20007;-62
2023/04/26 12:13:57;;;;;;;2.70;1.75;;;13.40;96.50;;;;;;26012344;22;20336;-62
2023/04/26 12:23:59;;;;;;;2.65;2.25;;;13.20;96.40;;;;;;25967946;22;20011;-63
2023/04/26 12:34:01;;;;;;;2.28;1.80;;;13.30;97.30;;;;;;25967623;22;20020;-64
2023/04/26 12:44:02;;;;;;;3.53;2.30;;;13.90;96.70;;;;;;25964880;22;20385;-64
2023/04/26 12:54:04;;;;;;;2.42;2.00;;;14.10;98.00;;;;;;25967263;22;20003;-52
2023/04/26 13:04:06;;;;;;;3.25;2.28;;;14.10;95.60;;;;;;25965266;22;20012;-64
2023/04/26 13:14:08;;;;;;;2.80;2.30;;;13.70;97.80;;;;;;25966210;22;20008;-51
2023/04/26 13:24:09;;;;;;;3.75;2.70;;;14.50;97.70;;;;;;25965828;22;20003;-51
2023/04/26 13:34:11;;;;;;;3.53;2.85;;;16.20;94.40;;;;;;25965157;22;20008;-52
2023/04/26 13:44:14;;;;;;;3.83;2.75;;;14.70;96.60;;;;;;25940604;22;20016;-52
2023/04/26 13:54:17;;;;;;;5.45;2.78;;;14.30;95.70;;;;;;25966339;22;20373;-62
2023/04/26 14:04:19;;;;;;;4.07;3.20;;;13.80;97.10;;;;;;25964248;22;20099;-51
2023/04/26 14:14:21;;;;;;;4.00;3.00;;;13.60;96.80;;;;;;25966930;22;20007;-51
2023/04/26 14:24:23;;;;;;;3.70;3.00;;;13.80;98.50;;;;;;25973139;22;20004;-66
2023/04/26 14:34:25;;;;;;;3.45;2.72;;;14.60;97.10;;;;;;25944950;22;20088;-68
2023/04/26 14:44:28;;;;;;;4.22;3.15;;;15.50;95.30;;;;;;25971995;22;20012;-53
2023/04/26 14:54:30;;;;;;;3.70;2.92;;;14.70;95.50;;;;;;25972014;22;20004;-50
2023/04/26 15:04:32;;;;;;;2.97;2.65;;;13.90;95.70;;;;;;25971428;22;19999;-65
2023/04/26 15:14:34;;;;;;;3.92;3.10;;;13.40;96.40;;;;;;25970797;22;20427;-63
2023/04/26 15:24:36;;;;;;;3.30;2.85;;;12.90;96.60;;;;;;25970016;22;20008;-55
2023/04/26 15:34:42;;;;;;;3.33;2.58;;;13.10;97.60;;;;;;25969896;22;20135;-53
2023/04/26 15:44:44;;;;;;;4.40;2.92;;;12.50;96.80;;;;;;25969272;22;20012;-54
2023/04/26 15:54:46;;;;;;;6.30;3.50;;;12.70;97.00;;;;;;25969551;22;20397;-54
2023/04/26 16:04:48;;;;;;;4.50;3.40;;;12.40;96.80;;;;;;25967653;22;20003;-62
2023/04/26 16:14:50;;;;;;;6.55;3.50;;;11.50;97.50;;;;;;25968602;22;20410;-56
2023/04/26 16:24:52;;;;;;;4.38;3.50;;;11.00;98.30;;;;;;25968037;22;20004;-54
2023/04/26 16:34:54;;;;;;;6.55;4.18;;;10.20;99.90;;;;;;25966148;22;20004;-55
2023/04/26 16:44:56;;;;;;;6.50;4.57;;;9.60;99.90;;;;;;25966415;22;20042;-53
2023/04/26 16:55:00;;;;;;;6.32;3.70;;;9.10;99.90;;;;;;25966499;22;20018;-54
2023/04/26 17:05:02;;;;;;;6.07;4.05;;;8.80;99.90;;;;;;25966427;22;20015;-53
2023/04/26 17:15:05;;;;;;;6.43;4.10;;;8.50;99.90;;;;;;25938870;22;20004;-54
2023/04/26 17:25:08;;;;;;;6.43;4.28;;;8.30;99.90;;;;;;25965907;22;20496;-53
2023/04/26 17:35:10;;;;;;;8.30;4.60;;;7.90;99.90;;;;;;25965517;22;20035;-53
2023/04/26 17:45:12;;;;;;;7.10;5.00;;;7.30;99.90;;;;;;25964546;22;20472;-53
2023/04/26 17:55:14;;;;;;;8.18;5.45;;;6.80;99.90;;;;;;25920524;22;20004;-60
2023/04/26 18:05:16;;;;;;;7.32;4.72;;;6.40;99.90;;;;;;25973838;22;20008;-54
2023/04/26 18:15:18;;;;;;;9.48;5.72;;;6.10;99.90;;;;;;25973160;22;20087;-59
2023/04/26 18:25:21;;;;;;;9.15;5.95;;;5.80;99.90;;;;;;25974606;22;20011;-53
2023/04/26 18:35:24;;;;;;;9.38;6.18;;;5.50;99.90;;;;;;25972663;22;20007;-60
2023/04/26 18:45:26;;;;;;;7.93;5.63;;;5.20;99.90;;;;;;25971162;22;20343;-52
2023/04/26 18:55:28;;;;;;;10.65;5.80;;;4.80;99.90;;;;;;25971626;22;20066;-60
2023/04/26 19:05:29;;;;;;;7.85;5.43;;;4.70;99.90;;;;;;25969444;22;20004;-55
2023/04/26 19:15:31;;;;;;;8.05;5.50;;;4.50;99.90;;;;;;25970965;22;20007;-52
2023/04/26 19:25:33;;;;;;;9.13;5.68;;;4.30;99.90;;;;;;25970611;22;20003;-53
2023/04/26 19:35:35;;;;;;;10.32;6.45;;;4.10;99.90;;;;;;25968877;22;20034;-53
2023/04/26 19:45:40;;;;;;;8.02;5.38;;;4.10;99.90;;;;;;25969505;22;20015;-52
2023/04/26 19:55:42;;;;;;;9.65;6.28;;;3.90;99.90;;;;;;25969122;22;20061;-52
2023/04/26 20:05:44;;;;;;;11.77;5.45;;;3.90;99.90;;;;;;25968759;22;20007;-53
2023/04/26 20:15:46;;;;;;;9.93;5.88;;;3.70;99.90;;;;;;25941350;22;20137;-52
2023/04/26 20:25:51;;;;;;;10.45;6.40;;;3.80;99.90;;;;;;25967969;22;20279;-52
2023/04/26 20:35:53;;;;;;;10.52;6.35;;;4.00;99.90;;;;;;25967276;22;20489;-52
2023/04/26 20:45:54;;;;;;;11.30;7.05;;;3.90;99.90;;;;;;25940206;22;20019;-60
2023/04/26 20:55:57;;;;;;;11.18;6.82;;;3.70;99.90;;;;;;25966787;22;20008;-60
2023/04/26 21:05:58;;;;;;;11.52;7.10;;;3.50;99.90;;;;;;25966647;22;20369;-60
2023/04/26 21:16:01;;;;;;;11.23;7.18;;;3.30;99.90;;;;;;25966061;22;20008;-51
2023/04/26 21:26:02;;;;;;;13.40;7.47;;;3.30;99.90;;;;;;25965263;22;20004;-60
2023/04/26 21:36:05;;;;;;;13.57;8.10;;;3.30;99.90;;;;;;25965365;22;20014;-59
2023/04/26 21:46:07;;;;;;;15.50;8.63;;;3.20;99.90;;;;;;25965158;22;20018;-49
2023/04/26 21:56:09;;;;;;;16.42;8.32;;;3.20;99.90;;;;;;25966527;22;20011;-60
2023/04/26 22:06:10;;;;;;;13.82;8.23;;;3.20;99.90;;;;;;25964805;22;20501;-52
2023/04/26 22:16:12;;;;;;;13.55;7.82;;;3.10;99.90;;;;;;25964828;22;20438;-51
2023/04/26 22:26:14;;;;;;;13.73;7.80;;;2.80;99.90;;;;;;25964200;22;20062;-51
2023/04/26 22:36:16;;;;;;;12.73;7.78;;;2.70;99.90;;;;;;25966543;22;20053;-60
2023/04/26 22:46:18;;;;;;;14.40;8.43;;;2.90;99.90;;;;;;26014206;22;20015;-53
2023/04/26 22:56:19;;;;;;;14.63;7.97;;;2.90;99.90;;;;;;25971642;22;20030;-52
2023/04/26 23:06:21;;;;;;;15.25;7.75;;;2.80;99.90;;;;;;25971234;22;20003;-60
2023/04/26 23:16:23;;;;;;;13.82;7.43;;;2.60;99.90;;;;;;25970764;22;20010;-50
2023/04/26 23:26:25;;;;;;;14.05;8.18;;;2.60;99.90;;;;;;25970744;22;20500;-49
2023/04/26 23:36:26;;;;;;;17.55;9.10;;;2.60;99.90;;;;;;25970162;22;20757;-50
2023/04/26 23:46:28;;;;;;;17.92;9.77;;;2.50;99.90;;;;;;26011632;22;20069;-51
2023/04/26 23:56:30;;;;;;;18.70;9.13;;;2.50;99.90;;;;;;25969571;22;20026;-49
